sensor_id;sensor_type;location;lat;lon;timestamp;temperature;humidity
67186;HTU21D;54116;53.518;49.398;2023-07-31T00:01:20;-1.94;118.99
67186;HTU21D;54116;53.518;49.398;2023-07-31T00:03:46;-1.89;118.99
67186;HTU21D;54116;53.518;49.398;2023-07-31T00:06:12;-1.95;118.99
67186;HTU21D;54116;53.518;49.398;2023-07-31T00:08:39;-2.03;118.99
67186;HTU21D;54116;53.518;49.398;2023-07-31T00:11:05;-2.05;118.99
67186;HTU21D;54116;53.518;49.398;2023-07-31T00:13:31;-2.06;118.99
67186;HTU21D;54116;53.518;49.398;2023-07-31T00:15:57;-2.05;118.99
67186;HTU21D;54116;53.518;49.398;2023-07-31T00:18:23;-2.08;118.99
67186;HTU21D;54116;53.518;49.398;2023-07-31T00:20:49;-2.17;118.99
67186;HTU21D;54116;53.518;49.398;2023-07-31T00:23:15;-2.14;118.99
67186;HTU21D;54116;53.518;49.398;2023-07-31T00:25:41;-2.15;118.99
67186;HTU21D;54116;53.518;49.398;2023-07-31T00:28:07;-2.16;118.99
67186;HTU21D;54116;53.518;49.398;2023-07-31T00:30:36;-2.17;118.99
67186;HTU21D;54116;53.518;49.398;2023-07-31T00:33:02;-2.17;118.99
67186;HTU21D;54116;53.518;49.398;2023-07-31T00:35:29;-2.06;118.99
67186;HTU21D;54116;53.518;49.398;2023-07-31T00:37:58;-2.20;118.99
67186;HTU21D;54116;53.518;49.398;2023-07-31T00:40:24;-2.09;118.99
67186;HTU21D;54116;53.518;49.398;2023-07-31T00:42:53;-2.10;118.99
67186;HTU21D;54116;53.518;49.398;2023-07-31T00:45:23;-2.22;118.99
67186;HTU21D;54116;53.518;49.398;2023-07-31T00:47:49;-2.30;118.99
67186;HTU21D;54116;53.518;49.398;2023-07-31T00:50:17;-2.27;118.99
67186;HTU21D;54116;53.518;49.398;2023-07-31T00:52:49;-2.31;118.99
67186;HTU21D;54116;53.518;49.398;2023-07-31T00:55:15;-2.20;118.99
67186;HTU21D;54116;53.518;49.398;2023-07-31T00:57:42;-2.19;118.99
67186;HTU21D;54116;53.518;49.398;2023-07-31T01:00:09;-2.29;118.99
67186;HTU21D;54116;53.518;49.398;2023-07-31T01:02:36;-2.28;118.99
67186;HTU21D;54116;53.518;49.398;2023-07-31T01:05:03;-2.29;118.99
67186;HTU21D;54116;53.518;49.398;2023-07-31T01:07:39;-2.30;118.99
67186;HTU21D;54116;53.518;49.398;2023-07-31T01:10:16;-2.22;118.99
67186;HTU21D;54116;53.518;49.398;2023-07-31T01:12:48;-2.21;118.99
67186;HTU21D;54116;53.518;49.398;2023-07-31T01:15:16;-2.12;118.99
67186;HTU21D;54116;53.518;49.398;2023-07-31T01:17:43;-1.98;118.99
67186;HTU21D;54116;53.518;49.398;2023-07-31T01:20:22;-2.04;118.99
67186;HTU21D;54116;53.518;49.398;2023-07-31T01:31:18;-1.90;118.99
67186;HTU21D;54116;53.518;49.398;2023-07-31T01:33:46;-2.04;118.99
67186;HTU21D;54116;53.518;49.398;2023-07-31T01:36:13;-2.00;118.99
67186;HTU21D;54116;53.518;49.398;2023-07-31T01:38:39;-1.94;118.99
67186;HTU21D;54116;53.518;49.398;2023-07-31T01:41:24;-2.05;118.99
67186;HTU21D;54116;53.518;49.398;2023-07-31T01:43:54;-1.88;118.99
67186;HTU21D;54116;53.518;49.398;2023-07-31T01:46:20;-2.00;118.99
67186;HTU21D;54116;53.518;49.398;2023-07-31T01:48:46;-1.87;118.99
67186;HTU21D;54116;53.518;49.398;2023-07-31T01:51:12;-1.88;118.99
67186;HTU21D;54116;53.518;49.398;2023-07-31T01:53:39;-1.88;118.99
67186;HTU21D;54116;53.518;49.398;2023-07-31T01:56:08;-1.99;118.99
67186;HTU21D;54116;53.518;49.398;2023-07-31T01:58:34;-1.92;118.99
67186;HTU21D;54116;53.518;49.398;2023-07-31T02:01:03;-1.94;118.99
67186;HTU21D;54116;53.518;49.398;2023-07-31T02:03:29;-2.01;118.99
67186;HTU21D;54116;53.518;49.398;2023-07-31T02:05:58;-2.06;118.99
67186;HTU21D;54116;53.518;49.398;2023-07-31T02:08:24;-2.00;118.99
67186;HTU21D;54116;53.518;49.398;2023-07-31T02:10:51;-1.89;118.99
67186;HTU21D;54116;53.518;49.398;2023-07-31T02:13:17;-1.93;118.99
67186;HTU21D;54116;53.518;49.398;2023-07-31T02:15:43;-1.80;118.99
67186;HTU21D;54116;53.518;49.398;2023-07-31T02:18:12;-1.78;118.99
67186;HTU21D;54116;53.518;49.398;2023-07-31T02:20:38;-1.79;118.99
67186;HTU21D;54116;53.518;49.398;2023-07-31T02:23:07;-1.82;118.99
67186;HTU21D;54116;53.518;49.398;2023-07-31T02:25:36;-1.90;118.99
67186;HTU21D;54116;53.518;49.398;2023-07-31T02:28:02;-1.88;118.99
67186;HTU21D;54116;53.518;49.398;2023-07-31T02:30:32;-1.86;118.99
67186;HTU21D;54116;53.518;49.398;2023-07-31T02:32:58;-1.80;118.99
67186;HTU21D;54116;53.518;49.398;2023-07-31T02:35:28;-1.89;118.99
67186;HTU21D;54116;53.518;49.398;2023-07-31T02:37:54;-1.80;118.99
67186;HTU21D;54116;53.518;49.398;2023-07-31T02:40:20;-1.86;118.99
67186;HTU21D;54116;53.518;49.398;2023-07-31T02:42:49;-1.97;118.99
67186;HTU21D;54116;53.518;49.398;2023-07-31T02:45:15;-1.92;118.99
67186;HTU21D;54116;53.518;49.398;2023-07-31T02:47:44;-1.87;118.99
67186;HTU21D;54116;53.518;49.398;2023-07-31T02:50:10;-1.91;118.99
67186;HTU21D;54116;53.518;49.398;2023-07-31T02:52:39;-1.86;118.99
67186;HTU21D;54116;53.518;49.398;2023-07-31T02:55:06;-1.77;118.99
67186;HTU21D;54116;53.518;49.398;2023-07-31T02:57:32;-1.80;118.99
67186;HTU21D;54116;53.518;49.398;2023-07-31T02:59:58;-1.77;118.99
67186;HTU21D;54116;53.518;49.398;2023-07-31T03:02:25;-1.75;118.99
67186;HTU21D;54116;53.518;49.398;2023-07-31T03:04:51;-1.74;118.99
67186;HTU21D;54116;53.518;49.398;2023-07-31T03:07:17;-1.71;118.99
67186;HTU21D;54116;53.518;49.398;2023-07-31T03:09:46;-1.78;118.99
67186;HTU21D;54116;53.518;49.398;2023-07-31T03:12:13;-1.71;118.99
67186;HTU21D;54116;53.518;49.398;2023-07-31T03:14:39;-1.70;118.99
67186;HTU21D;54116;53.518;49.398;2023-07-31T03:17:06;-1.61;118.99
67186;HTU21D;54116;53.518;49.398;2023-07-31T03:19:32;-1.71;118.99
67186;HTU21D;54116;53.518;49.398;2023-07-31T03:21:59;-1.72;118.99
67186;HTU21D;54116;53.518;49.398;2023-07-31T03:24:26;-1.73;118.99
67186;HTU21D;54116;53.518;49.398;2023-07-31T03:26:52;-1.71;118.99
67186;HTU21D;54116;53.518;49.398;2023-07-31T03:29:21;-1.58;118.99
67186;HTU21D;54116;53.518;49.398;2023-07-31T03:31:47;-1.71;118.99
67186;HTU21D;54116;53.518;49.398;2023-07-31T03:34:13;-1.68;118.99
67186;HTU21D;54116;53.518;49.398;2023-07-31T03:36:39;-1.65;118.99
67186;HTU21D;54116;53.518;49.398;2023-07-31T03:39:05;-1.75;118.99
67186;HTU21D;54116;53.518;49.398;2023-07-31T03:41:34;-1.68;118.99
67186;HTU21D;54116;53.518;49.398;2023-07-31T03:44:00;-1.60;118.99
67186;HTU21D;54116;53.518;49.398;2023-07-31T03:46:29;-1.58;118.99
67186;HTU21D;54116;53.518;49.398;2023-07-31T03:48:55;-1.64;118.99
67186;HTU21D;54116;53.518;49.398;2023-07-31T03:51:21;-1.68;118.99
67186;HTU21D;54116;53.518;49.398;2023-07-31T03:53:47;-1.61;118.99
67186;HTU21D;54116;53.518;49.398;2023-07-31T03:56:13;-1.59;118.99
67186;HTU21D;54116;53.518;49.398;2023-07-31T03:58:39;-1.49;118.99
67186;HTU21D;54116;53.518;49.398;2023-07-31T04:01:08;-1.45;118.99
67186;HTU21D;54116;53.518;49.398;2023-07-31T04:03:37;-1.42;118.99
67186;HTU21D;54116;53.518;49.398;2023-07-31T04:06:03;-1.57;118.99
67186;HTU21D;54116;53.518;49.398;2023-07-31T04:08:33;-1.56;118.99
67186;HTU21D;54116;53.518;49.398;2023-07-31T04:11:02;-1.49;118.99
67186;HTU21D;54116;53.518;49.398;2023-07-31T04:13:29;-1.43;118.99
67186;HTU21D;54116;53.518;49.398;2023-07-31T04:15:55;-1.39;118.99
67186;HTU21D;54116;53.518;49.398;2023-07-31T04:18:21;-1.46;118.99
67186;HTU21D;54116;53.518;49.398;2023-07-31T04:20:48;-1.39;118.99
67186;HTU21D;54116;53.518;49.398;2023-07-31T04:23:14;-1.43;118.99
67186;HTU21D;54116;53.518;49.398;2023-07-31T04:25:40;-1.47;118.99
67186;HTU21D;54116;53.518;49.398;2023-07-31T04:28:06;-1.42;118.99
67186;HTU21D;54116;53.518;49.398;2023-07-31T04:30:36;-1.32;118.99
67186;HTU21D;54116;53.518;49.398;2023-07-31T04:33:02;-1.27;118.99
67186;HTU21D;54116;53.518;49.398;2023-07-31T04:35:29;-1.27;118.99
67186;HTU21D;54116;53.518;49.398;2023-07-31T04:37:55;-1.24;118.99
67186;HTU21D;54116;53.518;49.398;2023-07-31T04:40:21;-1.25;118.99
67186;HTU21D;54116;53.518;49.398;2023-07-31T04:42:47;-1.11;118.99
67186;HTU21D;54116;53.518;49.398;2023-07-31T04:45:13;-1.08;118.99
67186;HTU21D;54116;53.518;49.398;2023-07-31T04:47:42;-1.05;118.99
67186;HTU21D;54116;53.518;49.398;2023-07-31T04:50:09;-1.13;118.99
67186;HTU21D;54116;53.518;49.398;2023-07-31T04:52:35;-0.96;118.99
67186;HTU21D;54116;53.518;49.398;2023-07-31T04:55:01;-0.94;118.99
67186;HTU21D;54116;53.518;49.398;2023-07-31T04:57:28;-0.86;118.99
67186;HTU21D;54116;53.518;49.398;2023-07-31T04:59:54;-0.77;118.99
67186;HTU21D;54116;53.518;49.398;2023-07-31T05:02:21;-0.91;118.99
67186;HTU21D;54116;53.518;49.398;2023-07-31T05:04:47;-0.91;118.99
67186;HTU21D;54116;53.518;49.398;2023-07-31T05:07:16;-0.88;118.99
67186;HTU21D;54116;53.518;49.398;2023-07-31T05:09:43;-0.90;118.99
67186;HTU21D;54116;53.518;49.398;2023-07-31T05:12:09;-0.93;118.99
67186;HTU21D;54116;53.518;49.398;2023-07-31T05:14:35;-1.03;118.99
67186;HTU21D;54116;53.518;49.398;2023-07-31T05:17:05;-1.09;118.99
67186;HTU21D;54116;53.518;49.398;2023-07-31T05:19:31;-1.06;118.99
67186;HTU21D;54116;53.518;49.398;2023-07-31T05:22:00;-0.95;118.99
67186;HTU21D;54116;53.518;49.398;2023-07-31T05:24:26;-0.90;118.99
67186;HTU21D;54116;53.518;49.398;2023-07-31T05:26:53;-1.03;118.99
67186;HTU21D;54116;53.518;49.398;2023-07-31T05:29:20;-0.99;118.99
67186;HTU21D;54116;53.518;49.398;2023-07-31T05:31:49;-1.16;118.99
67186;HTU21D;54116;53.518;49.398;2023-07-31T05:34:16;-1.02;118.99
67186;HTU21D;54116;53.518;49.398;2023-07-31T05:36:42;-1.09;118.99
67186;HTU21D;54116;53.518;49.398;2023-07-31T05:39:11;-1.19;118.99
67186;HTU21D;54116;53.518;49.398;2023-07-31T05:41:38;-1.23;118.99
67186;HTU21D;54116;53.518;49.398;2023-07-31T05:44:05;-1.20;118.99
67186;HTU21D;54116;53.518;49.398;2023-07-31T05:46:31;-1.21;118.99
67186;HTU21D;54116;53.518;49.398;2023-07-31T05:48:58;-1.30;118.99
67186;HTU21D;54116;53.518;49.398;2023-07-31T05:51:26;-1.33;118.99
67186;HTU21D;54116;53.518;49.398;2023-07-31T05:53:56;-1.31;118.99
67186;HTU21D;54116;53.518;49.398;2023-07-31T05:56:22;-1.23;118.99
67186;HTU21D;54116;53.518;49.398;2023-07-31T05:58:48;-1.06;118.99
67186;HTU21D;54116;53.518;49.398;2023-07-31T06:01:16;-1.10;118.99
67186;HTU21D;54116;53.518;49.398;2023-07-31T06:03:42;-1.10;118.99
67186;HTU21D;54116;53.518;49.398;2023-07-31T06:06:09;-1.13;118.99
67186;HTU21D;54116;53.518;49.398;2023-07-31T06:08:38;-1.19;118.99
67186;HTU21D;54116;53.518;49.398;2023-07-31T06:11:04;-1.28;118.99
67186;HTU21D;54116;53.518;49.398;2023-07-31T06:13:30;-1.32;118.99
67186;HTU21D;54116;53.518;49.398;2023-07-31T06:15:56;-1.32;118.99
67186;HTU21D;54116;53.518;49.398;2023-07-31T06:18:22;-1.41;118.99
67186;HTU21D;54116;53.518;49.398;2023-07-31T06:20:48;-1.53;118.99
67186;HTU21D;54116;53.518;49.398;2023-07-31T06:23:22;-1.48;118.99
67186;HTU21D;54116;53.518;49.398;2023-07-31T06:25:48;-1.52;118.99
67186;HTU21D;54116;53.518;49.398;2023-07-31T06:28:15;-1.46;118.99
67186;HTU21D;54116;53.518;49.398;2023-07-31T06:30:47;-1.39;118.99
67186;HTU21D;54116;53.518;49.398;2023-07-31T06:33:18;-1.31;118.99
67186;HTU21D;54116;53.518;49.398;2023-07-31T06:35:45;-1.24;118.99
67186;HTU21D;54116;53.518;49.398;2023-07-31T06:38:11;-1.01;118.99
67186;HTU21D;54116;53.518;49.398;2023-07-31T06:40:41;-1.05;118.99
67186;HTU21D;54116;53.518;49.398;2023-07-31T06:43:07;-1.08;118.99
67186;HTU21D;54116;53.518;49.398;2023-07-31T06:45:36;-1.19;118.99
67186;HTU21D;54116;53.518;49.398;2023-07-31T06:48:04;-1.15;118.99
67186;HTU21D;54116;53.518;49.398;2023-07-31T06:50:31;-1.04;118.99
67186;HTU21D;54116;53.518;49.398;2023-07-31T06:53:01;-0.99;118.99
67186;HTU21D;54116;53.518;49.398;2023-07-31T06:55:29;-1.05;118.99
67186;HTU21D;54116;53.518;49.398;2023-07-31T06:57:58;-1.00;118.99
67186;HTU21D;54116;53.518;49.398;2023-07-31T07:00:24;-0.93;118.99
67186;HTU21D;54116;53.518;49.398;2023-07-31T07:02:51;-0.91;118.99
67186;HTU21D;54116;53.518;49.398;2023-07-31T07:05:17;-0.87;118.99
67186;HTU21D;54116;53.518;49.398;2023-07-31T07:07:49;-0.81;118.99
67186;HTU21D;54116;53.518;49.398;2023-07-31T07:10:18;-0.56;118.99
67186;HTU21D;54116;53.518;49.398;2023-07-31T07:12:45;-0.46;118.99
67186;HTU21D;54116;53.518;49.398;2023-07-31T07:15:15;-0.74;118.99
67186;HTU21D;54116;53.518;49.398;2023-07-31T07:17:41;-0.93;118.99
67186;HTU21D;54116;53.518;49.398;2023-07-31T07:20:13;-1.01;118.99
67186;HTU21D;54116;53.518;49.398;2023-07-31T07:22:43;-1.05;118.99
67186;HTU21D;54116;53.518;49.398;2023-07-31T07:25:09;-0.97;118.99
67186;HTU21D;54116;53.518;49.398;2023-07-31T07:27:38;-1.11;118.99
67186;HTU21D;54116;53.518;49.398;2023-07-31T07:30:05;-1.06;118.99
67186;HTU21D;54116;53.518;49.398;2023-07-31T07:32:31;-0.94;118.99
67186;HTU21D;54116;53.518;49.398;2023-07-31T07:34:58;-0.86;118.99
67186;HTU21D;54116;53.518;49.398;2023-07-31T07:37:27;-0.81;118.99
67186;HTU21D;54116;53.518;49.398;2023-07-31T07:39:56;-0.60;118.99
67186;HTU21D;54116;53.518;49.398;2023-07-31T07:42:23;-0.50;118.99
67186;HTU21D;54116;53.518;49.398;2023-07-31T07:44:49;-0.52;118.99
67186;HTU21D;54116;53.518;49.398;2023-07-31T07:47:19;-0.35;118.99
67186;HTU21D;54116;53.518;49.398;2023-07-31T07:49:51;-0.52;118.99
67186;HTU21D;54116;53.518;49.398;2023-07-31T07:52:17;-0.41;118.99
67186;HTU21D;54116;53.518;49.398;2023-07-31T07:54:44;-0.27;118.99
67186;HTU21D;54116;53.518;49.398;2023-07-31T07:57:20;-0.08;118.99
67186;HTU21D;54116;53.518;49.398;2023-07-31T07:59:46;-0.05;118.99
67186;HTU21D;54116;53.518;49.398;2023-07-31T08:02:15;-0.00;118.99
67186;HTU21D;54116;53.518;49.398;2023-07-31T08:04:42;-0.09;118.99
67186;HTU21D;54116;53.518;49.398;2023-07-31T08:07:14;-0.28;118.99
67186;HTU21D;54116;53.518;49.398;2023-07-31T08:09:41;-0.37;118.99
67186;HTU21D;54116;53.518;49.398;2023-07-31T08:12:07;-0.41;118.99
67186;HTU21D;54116;53.518;49.398;2023-07-31T08:14:34;-0.54;118.99
67186;HTU21D;54116;53.518;49.398;2023-07-31T08:17:00;-0.62;118.99
67186;HTU21D;54116;53.518;49.398;2023-07-31T08:19:26;-0.50;118.99
67186;HTU21D;54116;53.518;49.398;2023-07-31T08:21:56;-0.22;118.99
67186;HTU21D;54116;53.518;49.398;2023-07-31T08:24:22;-0.12;118.99
67186;HTU21D;54116;53.518;49.398;2023-07-31T08:26:51;0.08;118.99
67186;HTU21D;54116;53.518;49.398;2023-07-31T08:29:19;0.19;118.99
67186;HTU21D;54116;53.518;49.398;2023-07-31T08:31:48;0.21;118.99
67186;HTU21D;54116;53.518;49.398;2023-07-31T08:34:14;0.35;118.99
67186;HTU21D;54116;53.518;49.398;2023-07-31T08:36:40;0.34;118.99
67186;HTU21D;54116;53.518;49.398;2023-07-31T08:39:10;0.23;118.99
67186;HTU21D;54116;53.518;49.398;2023-07-31T08:41:38;0.03;118.99
67186;HTU21D;54116;53.518;49.398;2023-07-31T08:44:07;-0.24;118.99
67186;HTU21D;54116;53.518;49.398;2023-07-31T08:46:37;-0.21;118.99
67186;HTU21D;54116;53.518;49.398;2023-07-31T08:49:07;-0.14;118.99
67186;HTU21D;54116;53.518;49.398;2023-07-31T08:51:41;-0.10;118.99
67186;HTU21D;54116;53.518;49.398;2023-07-31T08:54:07;-0.09;118.99
67186;HTU21D;54116;53.518;49.398;2023-07-31T08:56:35;0.01;118.99
67186;HTU21D;54116;53.518;49.398;2023-07-31T08:59:03;0.15;118.99
67186;HTU21D;54116;53.518;49.398;2023-07-31T09:01:39;0.02;118.99
67186;HTU21D;54116;53.518;49.398;2023-07-31T09:04:10;-0.07;118.99
67186;HTU21D;54116;53.518;49.398;2023-07-31T09:06:39;-0.10;118.99
67186;HTU21D;54116;53.518;49.398;2023-07-31T09:09:09;0.01;118.99
67186;HTU21D;54116;53.518;49.398;2023-07-31T09:11:35;-0.14;118.99
67186;HTU21D;54116;53.518;49.398;2023-07-31T09:14:02;-0.16;118.99
67186;HTU21D;54116;53.518;49.398;2023-07-31T09:16:34;-0.00;118.99
67186;HTU21D;54116;53.518;49.398;2023-07-31T09:19:08;0.15;118.99
67186;HTU21D;54116;53.518;49.398;2023-07-31T09:21:48;0.17;118.99
67186;HTU21D;54116;53.518;49.398;2023-07-31T09:24:28;0.21;118.99
67186;HTU21D;54116;53.518;49.398;2023-07-31T09:26:56;0.37;118.99
67186;HTU21D;54116;53.518;49.398;2023-07-31T09:29:23;0.47;118.99
67186;HTU21D;54116;53.518;49.398;2023-07-31T09:31:50;0.29;118.99
67186;HTU21D;54116;53.518;49.398;2023-07-31T09:34:16;0.40;118.99
67186;HTU21D;54116;53.518;49.398;2023-07-31T09:36:45;0.47;118.99
67186;HTU21D;54116;53.518;49.398;2023-07-31T09:39:18;0.69;118.99
67186;HTU21D;54116;53.518;49.398;2023-07-31T09:41:53;0.55;118.99
67186;HTU21D;54116;53.518;49.398;2023-07-31T09:44:20;0.60;118.99
67186;HTU21D;54116;53.518;49.398;2023-07-31T09:46:49;0.79;118.99
67186;HTU21D;54116;53.518;49.398;2023-07-31T09:49:16;0.76;118.99
67186;HTU21D;54116;53.518;49.398;2023-07-31T09:51:42;0.66;118.99
67186;HTU21D;54116;53.518;49.398;2023-07-31T09:54:13;0.66;118.99
67186;HTU21D;54116;53.518;49.398;2023-07-31T09:56:45;0.63;118.99
67186;HTU21D;54116;53.518;49.398;2023-07-31T09:59:16;0.74;118.99
67186;HTU21D;54116;53.518;49.398;2023-07-31T10:01:46;0.68;118.99
67186;HTU21D;54116;53.518;49.398;2023-07-31T10:04:13;0.73;118.99
67186;HTU21D;54116;53.518;49.398;2023-07-31T10:06:43;0.87;118.99
67186;HTU21D;54116;53.518;49.398;2023-07-31T10:09:12;0.93;118.99
67186;HTU21D;54116;53.518;49.398;2023-07-31T10:11:45;0.83;118.99
67186;HTU21D;54116;53.518;49.398;2023-07-31T10:14:18;0.58;118.99
67186;HTU21D;54116;53.518;49.398;2023-07-31T10:16:46;0.65;118.99
67186;HTU21D;54116;53.518;49.398;2023-07-31T10:19:14;0.66;118.99
67186;HTU21D;54116;53.518;49.398;2023-07-31T10:21:46;0.72;118.99
67186;HTU21D;54116;53.518;49.398;2023-07-31T10:24:14;0.75;118.99
67186;HTU21D;54116;53.518;49.398;2023-07-31T10:26:44;0.79;118.99
67186;HTU21D;54116;53.518;49.398;2023-07-31T10:29:11;0.72;118.99
67186;HTU21D;54116;53.518;49.398;2023-07-31T10:31:40;0.66;118.99
67186;HTU21D;54116;53.518;49.398;2023-07-31T10:34:07;0.60;118.99
67186;HTU21D;54116;53.518;49.398;2023-07-31T10:36:34;0.43;118.99
67186;HTU21D;54116;53.518;49.398;2023-07-31T10:39:06;0.32;118.99
67186;HTU21D;54116;53.518;49.398;2023-07-31T10:41:52;0.25;118.99
67186;HTU21D;54116;53.518;49.398;2023-07-31T10:44:18;0.20;118.99
67186;HTU21D;54116;53.518;49.398;2023-07-31T10:46:45;0.17;118.99
67186;HTU21D;54116;53.518;49.398;2023-07-31T10:49:20;0.31;118.99
67186;HTU21D;54116;53.518;49.398;2023-07-31T10:51:49;0.18;118.99
67186;HTU21D;54116;53.518;49.398;2023-07-31T10:54:16;0.05;118.99
67186;HTU21D;54116;53.518;49.398;2023-07-31T10:56:45;0.02;118.99
67186;HTU21D;54116;53.518;49.398;2023-07-31T10:59:13;-0.02;118.99
67186;HTU21D;54116;53.518;49.398;2023-07-31T11:01:56;-0.05;118.99
67186;HTU21D;54116;53.518;49.398;2023-07-31T11:04:30;-0.01;118.99
67186;HTU21D;54116;53.518;49.398;2023-07-31T11:07:02;0.02;118.99
67186;HTU21D;54116;53.518;49.398;2023-07-31T11:09:31;0.09;118.99
67186;HTU21D;54116;53.518;49.398;2023-07-31T11:12:02;0.13;118.99
67186;HTU21D;54116;53.518;49.398;2023-07-31T11:14:28;0.21;118.99
67186;HTU21D;54116;53.518;49.398;2023-07-31T11:16:57;0.22;118.99
67186;HTU21D;54116;53.518;49.398;2023-07-31T11:19:27;0.45;118.99
67186;HTU21D;54116;53.518;49.398;2023-07-31T11:21:54;0.51;118.99
67186;HTU21D;54116;53.518;49.398;2023-07-31T11:24:20;0.36;118.99
67186;HTU21D;54116;53.518;49.398;2023-07-31T11:26:53;0.37;118.99
67186;HTU21D;54116;53.518;49.398;2023-07-31T11:29:27;0.31;118.99
67186;HTU21D;54116;53.518;49.398;2023-07-31T11:31:57;0.24;118.99
67186;HTU21D;54116;53.518;49.398;2023-07-31T11:34:23;0.25;118.99
67186;HTU21D;54116;53.518;49.398;2023-07-31T11:36:54;0.21;118.99
67186;HTU21D;54116;53.518;49.398;2023-07-31T11:39:22;0.12;118.99
67186;HTU21D;54116;53.518;49.398;2023-07-31T11:41:59;0.05;118.99
67186;HTU21D;54116;53.518;49.398;2023-07-31T11:44:25;-0.02;118.99
67186;HTU21D;54116;53.518;49.398;2023-07-31T11:46:57;-0.00;118.99
67186;HTU21D;54116;53.518;49.398;2023-07-31T11:49:23;0.14;118.99
67186;HTU21D;54116;53.518;49.398;2023-07-31T11:51:50;0.14;118.99
67186;HTU21D;54116;53.518;49.398;2023-07-31T11:54:16;0.19;118.99
67186;HTU21D;54116;53.518;49.398;2023-07-31T11:56:45;0.20;118.99
67186;HTU21D;54116;53.518;49.398;2023-07-31T11:59:12;0.04;118.99
67186;HTU21D;54116;53.518;49.398;2023-07-31T12:01:38;0.05;118.99
67186;HTU21D;54116;53.518;49.398;2023-07-31T12:04:07;0.06;118.99
67186;HTU21D;54116;53.518;49.398;2023-07-31T12:06:36;0.07;118.99
67186;HTU21D;54116;53.518;49.398;2023-07-31T12:09:08;0.14;118.99
67186;HTU21D;54116;53.518;49.398;2023-07-31T12:11:44;0.24;118.99
67186;HTU21D;54116;53.518;49.398;2023-07-31T12:14:27;0.39;118.99
67186;HTU21D;54116;53.518;49.398;2023-07-31T12:17:03;0.40;118.99
67186;HTU21D;54116;53.518;49.398;2023-07-31T12:19:33;0.33;118.99
67186;HTU21D;54116;53.518;49.398;2023-07-31T12:22:00;0.37;118.99
67186;HTU21D;54116;53.518;49.398;2023-07-31T12:24:27;0.44;118.99
67186;HTU21D;54116;53.518;49.398;2023-07-31T12:26:53;0.53;118.99
67186;HTU21D;54116;53.518;49.398;2023-07-31T12:29:23;0.51;118.99
67186;HTU21D;54116;53.518;49.398;2023-07-31T12:31:49;0.50;118.99
67186;HTU21D;54116;53.518;49.398;2023-07-31T12:34:19;0.73;118.99
67186;HTU21D;54116;53.518;49.398;2023-07-31T12:36:49;0.88;118.99
67186;HTU21D;54116;53.518;49.398;2023-07-31T12:39:21;1.02;118.99
67186;HTU21D;54116;53.518;49.398;2023-07-31T12:41:48;1.18;118.99
67186;HTU21D;54116;53.518;49.398;2023-07-31T12:44:14;1.41;118.99
67186;HTU21D;54116;53.518;49.398;2023-07-31T12:46:40;1.42;118.99
67186;HTU21D;54116;53.518;49.398;2023-07-31T12:49:09;1.43;118.99
67186;HTU21D;54116;53.518;49.398;2023-07-31T12:51:35;1.42;118.99
67186;HTU21D;54116;53.518;49.398;2023-07-31T12:54:03;1.51;118.99
67186;HTU21D;54116;53.518;49.398;2023-07-31T12:56:30;1.79;118.99
67186;HTU21D;54116;53.518;49.398;2023-07-31T12:58:56;1.50;118.99
67186;HTU21D;54116;53.518;49.398;2023-07-31T13:01:25;1.25;118.99
67186;HTU21D;54116;53.518;49.398;2023-07-31T13:03:51;1.12;118.99
67186;HTU21D;54116;53.518;49.398;2023-07-31T13:06:20;0.86;118.99
67186;HTU21D;54116;53.518;49.398;2023-07-31T13:08:46;0.78;118.99
67186;HTU21D;54116;53.518;49.398;2023-07-31T13:11:12;0.69;118.99
67186;HTU21D;54116;53.518;49.398;2023-07-31T13:13:38;0.79;118.99
67186;HTU21D;54116;53.518;49.398;2023-07-31T13:16:07;0.90;118.99
67186;HTU21D;54116;53.518;49.398;2023-07-31T13:18:33;1.36;118.99
67186;HTU21D;54116;53.518;49.398;2023-07-31T13:20:59;1.60;118.99
67186;HTU21D;54116;53.518;49.398;2023-07-31T13:23:25;1.71;118.99
67186;HTU21D;54116;53.518;49.398;2023-07-31T13:25:51;1.68;118.99
67186;HTU21D;54116;53.518;49.398;2023-07-31T13:28:20;1.61;118.99
67186;HTU21D;54116;53.518;49.398;2023-07-31T13:30:49;1.61;118.99
67186;HTU21D;54116;53.518;49.398;2023-07-31T13:33:15;1.40;118.99
67186;HTU21D;54116;53.518;49.398;2023-07-31T13:35:41;1.43;118.99
67186;HTU21D;54116;53.518;49.398;2023-07-31T13:38:07;1.37;118.99
67186;HTU21D;54116;53.518;49.398;2023-07-31T13:40:33;1.34;118.99
67186;HTU21D;54116;53.518;49.398;2023-07-31T13:42:59;1.29;118.99
67186;HTU21D;54116;53.518;49.398;2023-07-31T13:45:28;1.62;118.99
67186;HTU21D;54116;53.518;49.398;2023-07-31T13:47:54;1.77;118.99
67186;HTU21D;54116;53.518;49.398;2023-07-31T13:50:23;1.87;118.99
67186;HTU21D;54116;53.518;49.398;2023-07-31T13:52:49;1.96;118.99
67186;HTU21D;54116;53.518;49.398;2023-07-31T13:55:15;1.86;118.99
67186;HTU21D;54116;53.518;49.398;2023-07-31T13:57:41;1.47;118.99
67186;HTU21D;54116;53.518;49.398;2023-07-31T14:00:08;1.35;118.99
67186;HTU21D;54116;53.518;49.398;2023-07-31T14:02:34;1.24;118.99
67186;HTU21D;54116;53.518;49.398;2023-07-31T14:05:00;1.22;118.99
67186;HTU21D;54116;53.518;49.398;2023-07-31T14:07:26;0.99;118.99
67186;HTU21D;54116;53.518;49.398;2023-07-31T14:09:55;0.79;118.99
67186;HTU21D;54116;53.518;49.398;2023-07-31T14:12:21;0.88;118.99
67186;HTU21D;54116;53.518;49.398;2023-07-31T14:14:47;0.66;118.99
67186;HTU21D;54116;53.518;49.398;2023-07-31T14:17:13;0.64;118.99
67186;HTU21D;54116;53.518;49.398;2023-07-31T14:19:45;0.66;118.99
67186;HTU21D;54116;53.518;49.398;2023-07-31T14:22:11;0.68;118.99
67186;HTU21D;54116;53.518;49.398;2023-07-31T14:24:40;0.67;118.99
67186;HTU21D;54116;53.518;49.398;2023-07-31T14:27:06;1.01;118.99
67186;HTU21D;54116;53.518;49.398;2023-07-31T14:29:35;0.90;118.99
67186;HTU21D;54116;53.518;49.398;2023-07-31T14:32:02;0.91;118.99
67186;HTU21D;54116;53.518;49.398;2023-07-31T14:34:31;0.94;118.99
67186;HTU21D;54116;53.518;49.398;2023-07-31T14:37:00;0.94;118.99
67186;HTU21D;54116;53.518;49.398;2023-07-31T14:39:26;0.95;118.99
67186;HTU21D;54116;53.518;49.398;2023-07-31T14:41:52;0.91;118.99
67186;HTU21D;54116;53.518;49.398;2023-07-31T14:44:18;0.92;118.99
67186;HTU21D;54116;53.518;49.398;2023-07-31T14:46:45;0.90;118.99
67186;HTU21D;54116;53.518;49.398;2023-07-31T14:49:16;0.86;118.99
67186;HTU21D;54116;53.518;49.398;2023-07-31T14:51:42;0.87;118.99
67186;HTU21D;54116;53.518;49.398;2023-07-31T14:54:08;0.84;118.99
67186;HTU21D;54116;53.518;49.398;2023-07-31T14:56:34;0.84;118.99
67186;HTU21D;54116;53.518;49.398;2023-07-31T14:59:03;0.90;118.99
67186;HTU21D;54116;53.518;49.398;2023-07-31T15:01:34;0.88;118.99
67186;HTU21D;54116;53.518;49.398;2023-07-31T15:03:59;0.79;118.99
67186;HTU21D;54116;53.518;49.398;2023-07-31T15:06:29;0.71;118.99